Time;durP1;ratioP1;P1;durP2;ratioP2;P2;SDS_P1;SDS_P2;PMS_P1;PMS_P2;Temp;Humidity;BMP_temperature;BMP_pressure;BME280_temperature;BME280_humidity;BME280_pressure;Samples;Min_cycle;Max_cycle;Signal;HPM_P1;HPM_P2
2022/05/06 00:01:00;;;;;;;1.97;1.20;;;15.70;44.80;;;;;;5073115;28;20186;-75
2022/05/06 00:03:28;;;;;;;5.23;1.60;;;15.80;44.30;;;;;;5084198;28;20178;-74
2022/05/06 00:05:55;;;;;;;5.57;1.43;;;16.00;44.60;;;;;;5057962;28;20215;-76
2022/05/06 00:08:23;;;;;;;8.50;1.67;;;16.00;43.70;;;;;;5068846;28;20218;-74
2022/05/06 00:10:50;;;;;;;3.10;1.33;;;15.90;43.40;;;;;;5072720;28;20209;-75
2022/05/06 00:13:18;;;;;;;6.07;1.43;;;16.00;44.40;;;;;;5054153;28;20182;-75
2022/05/06 00:15:45;;;;;;;3.80;1.30;;;16.20;43.40;;;;;;5081674;28;20182;-77
2022/05/06 00:18:12;;;;;;;4.33;1.30;;;16.20;42.10;;;;;;5071829;28;20577;-78
2022/05/06 00:20:41;;;;;;;9.60;1.47;;;16.20;42.80;;;;;;5080232;28;20259;-77
2022/05/06 00:23:08;;;;;;;3.80;1.40;;;16.20;43.20;;;;;;5071194;28;20268;-78
2022/05/06 00:25:35;;;;;;;4.27;1.70;;;16.20;43.50;;;;;;5065898;28;20601;-76
2022/05/06 00:28:03;;;;;;;5.50;1.30;;;16.50;43.70;;;;;;5057080;28;20253;-73
2022/05/06 00:30:31;;;;;;;4.50;1.40;;;16.40;42.80;;;;;;5072212;28;20233;-74
2022/05/06 00:32:58;;;;;;;5.10;1.43;;;16.40;42.50;;;;;;5071294;28;20264;-75
2022/05/06 00:35:26;;;;;;;3.67;1.40;;;16.30;41.60;;;;;;5071853;28;20256;-76
2022/05/06 00:37:53;;;;;;;2.83;1.43;;;16.50;42.70;;;;;;5077263;28;20183;-76
2022/05/06 00:40:20;;;;;;;1.93;1.20;;;16.70;41.70;;;;;;5078009;28;20179;-76
2022/05/06 00:42:50;;;;;;;5.87;1.40;;;16.80;41.70;;;;;;5082254;28;20227;-79
2022/05/06 00:45:18;;;;;;;3.60;1.20;;;17.00;40.40;;;;;;5070078;28;20564;-76
2022/05/06 00:47:46;;;;;;;3.60;1.33;;;16.90;41.50;;;;;;5071969;28;20249;-78
2022/05/06 00:50:14;;;;;;;3.83;1.27;;;16.90;40.70;;;;;;5069750;28;20180;-78
2022/05/06 00:52:42;;;;;;;3.23;1.60;;;16.90;41.10;;;;;;5068298;28;20179;-76
2022/05/06 00:55:11;;;;;;;4.37;1.10;;;16.90;40.50;;;;;;5075325;28;20195;-75
2022/05/06 00:57:38;;;;;;;4.70;1.30;;;16.80;40.60;;;;;;5071822;28;20185;-76
2022/05/06 01:00:19;;;;;;;2.43;1.47;;;17.00;41.10;;;;;;5075226;28;20175;-75
2022/05/06 01:02:47;;;;;;;3.90;1.27;;;17.20;40.20;;;;;;5088509;28;20276;-75
2022/05/06 01:05:16;;;;;;;5.17;1.43;;;17.30;39.70;;;;;;5073369;28;20170;-77
2022/05/06 01:07:44;;;;;;;4.97;1.33;;;17.40;39.30;;;;;;5053246;28;20224;-75
2022/05/06 01:10:11;;;;;;;3.50;1.30;;;17.70;39.40;;;;;;5063840;28;20207;-77
2022/05/06 01:12:39;;;;;;;7.90;1.70;;;17.80;39.70;;;;;;5068283;28;20190;-84
2022/05/06 01:15:22;;;;;;;3.27;1.10;;;18.00;38.10;;;;;;5081063;28;20176;-79
2022/05/06 01:17:51;;;;;;;8.77;1.60;;;18.00;38.80;;;;;;5089785;28;20183;-79
2022/05/06 01:20:20;;;;;;;4.03;1.40;;;18.00;38.30;;;;;;5092739;28;20174;-84
2022/05/06 01:22:50;;;;;;;3.80;1.50;;;17.90;37.10;;;;;;5078624;28;20183;-81
2022/05/06 01:25:18;;;;;;;2.57;1.20;;;18.00;36.70;;;;;;5072663;28;20894;-79
2022/05/06 01:27:50;;;;;;;2.40;1.30;;;18.00;36.70;;;;;;5055579;28;20216;-79
2022/05/06 01:30:29;;;;;;;3.03;1.00;;;18.20;36.50;;;;;;5056289;28;20180;-81
2022/05/06 01:32:58;;;;;;;2.00;0.90;;;18.30;36.10;;;;;;5055142;28;20183;-80
2022/05/06 01:35:28;;;;;;;3.07;0.93;;;18.30;35.30;;;;;;5056289;28;20176;-77
2022/05/06 01:38:02;;;;;;;1.27;0.97;;;18.30;36.30;;;;;;5055511;28;20180;-80
2022/05/06 01:40:40;;;;;;;4.77;1.37;;;18.40;35.70;;;;;;5059798;28;20930;-76
2022/05/06 01:43:11;;;;;;;7.87;1.47;;;18.50;36.20;;;;;;5075295;28;20218;-81
2022/05/06 01:45:41;;;;;;;2.10;1.10;;;18.70;35.80;;;;;;5090648;28;20175;-76
2022/05/06 01:48:09;;;;;;;4.47;1.33;;;18.80;35.60;;;;;;5076426;28;20215;-78
2022/05/06 01:50:39;;;;;;;3.47;1.17;;;18.60;34.90;;;;;;5075817;28;20172;-77
2022/05/06 01:53:09;;;;;;;3.60;1.10;;;19.00;36.20;;;;;;5075594;28;20186;-78
2022/05/06 01:55:37;;;;;;;3.87;1.03;;;19.30;35.70;;;;;;5075552;28;20536;-78
2022/05/06 01:58:05;;;;;;;2.20;0.97;;;19.50;34.90;;;;;;5075352;28;20171;-75
2022/05/06 02:00:35;;;;;;;3.47;1.30;;;19.50;34.40;;;;;;5075668;28;20198;-83
2022/05/06 02:03:04;;;;;;;2.00;1.00;;;19.20;34.30;;;;;;5079985;28;20183;-81
2022/05/06 02:05:32;;;;;;;3.23;0.93;;;19.20;35.10;;;;;;5075088;28;20690;-80
2022/05/06 02:07:59;;;;;;;3.90;1.00;;;19.50;34.00;;;;;;5094269;28;20306;-79
2022/05/06 02:10:26;;;;;;;5.17;1.00;;;19.50;33.70;;;;;;5093596;28;20178;-82
2022/05/06 02:12:54;;;;;;;2.80;1.00;;;19.50;34.00;;;;;;5076136;28;20218;-78
2022/05/06 02:15:21;;;;;;;2.33;0.83;;;19.70;33.60;;;;;;5093355;28;20259;-77
2022/05/06 02:17:48;;;;;;;1.70;1.10;;;19.60;33.70;;;;;;5077084;28;20187;-80
2022/05/06 02:20:16;;;;;;;5.23;1.10;;;19.60;34.20;;;;;;5084283;28;20214;-79
2022/05/06 02:22:43;;;;;;;3.50;1.33;;;19.70;34.10;;;;;;5078761;28;20194;-81
2022/05/06 02:25:11;;;;;;;4.37;1.20;;;19.80;34.60;;;;;;5075115;28;20179;-75
2022/05/06 02:27:39;;;;;;;3.53;0.80;;;19.90;33.80;;;;;;5054736;28;20274;-77
2022/05/06 02:35:37;;;;;;;3.90;1.30;;;20.30;33.10;;;;;;5070377;28;20308;-74
2022/05/06 02:38:06;;;;;;;3.40;1.20;;;20.50;32.70;;;;;;5076684;28;20587;-80
2022/05/06 02:40:38;;;;;;;6.30;1.00;;;20.50;32.80;;;;;;5090491;28;20179;-78
2022/05/06 02:43:06;;;;;;;4.70;1.30;;;20.80;33.40;;;;;;5074744;28;20302;-77
2022/05/06 02:45:37;;;;;;;3.50;1.10;;;20.90;33.20;;;;;;5075051;28;20187;-78
2022/05/06 02:48:05;;;;;;;2.83;1.10;;;21.00;32.70;;;;;;5087280;28;20227;-82
2022/05/06 02:50:32;;;;;;;2.90;0.90;;;20.80;32.30;;;;;;5075675;28;20183;-86
2022/05/06 02:53:00;;;;;;;3.00;1.30;;;20.90;32.50;;;;;;5069747;28;20175;-79
2022/05/06 02:55:27;;;;;;;1.80;0.93;;;21.10;32.00;;;;;;5071988;28;20706;-78
2022/05/06 02:57:54;;;;;;;2.60;0.90;;;21.40;32.00;;;;;;5069900;28;20254;-78
2022/05/06 03:00:23;;;;;;;3.13;1.30;;;21.60;30.80;;;;;;5086936;28;20214;-78
2022/05/06 03:02:51;;;;;;;4.53;1.20;;;21.50;31.30;;;;;;5086375;28;20236;-77
2022/05/06 03:05:19;;;;;;;3.20;1.37;;;21.60;30.70;;;;;;5076793;28;20217;-77
2022/05/06 03:07:46;;;;;;;4.20;1.30;;;21.50;30.50;;;;;;5058915;28;20291;-78
2022/05/06 03:10:13;;;;;;;6.43;1.30;;;21.40;30.40;;;;;;5076424;28;20644;-76
2022/05/06 03:12:44;;;;;;;4.70;1.40;;;21.40;29.70;;;;;;5076874;28;20607;-77
2022/05/06 03:15:12;;;;;;;3.43;1.00;;;21.70;29.70;;;;;;5083101;28;20182;-75
2022/05/06 03:17:39;;;;;;;2.20;1.10;;;21.80;30.10;;;;;;5072631;28;20215;-79
2022/05/06 03:20:08;;;;;;;4.80;1.10;;;21.80;30.10;;;;;;5073290;28;20175;-83
2022/05/06 03:22:46;;;;;;;3.97;1.20;;;22.10;29.00;;;;;;5068043;28;20188;-77
2022/05/06 03:25:16;;;;;;;3.17;1.03;;;21.80;29.50;;;;;;5054499;28;20587;-79
2022/05/06 03:30:49;;;;;;;1.63;1.17;;;22.10;30.10;;;;;;5062687;28;20171;-77
2022/05/06 03:33:18;;;;;;;3.37;1.03;;;22.20;28.60;;;;;;5069680;28;20171;-79
2022/05/06 03:35:45;;;;;;;4.70;1.00;;;22.50;28.60;;;;;;5072038;28;20187;-77
2022/05/06 03:38:13;;;;;;;4.03;1.10;;;22.50;28.60;;;;;;5071068;28;20175;-76
2022/05/06 03:40:41;;;;;;;4.17;1.10;;;22.50;29.10;;;;;;5071541;28;20206;-78
2022/05/06 03:43:08;;;;;;;6.10;3.00;;;23.10;28.00;;;;;;5073155;28;20222;-78
2022/05/06 03:45:38;;;;;;;8.40;1.20;;;23.20;28.00;;;;;;5072329;28;20176;-80
2022/05/06 03:48:06;;;;;;;2.67;1.00;;;22.80;28.00;;;;;;5091540;28;20221;-78
2022/05/06 03:53:19;;;;;;;2.73;1.13;;;22.90;27.70;;;;;;5068460;28;20679;-81
2022/05/06 03:55:46;;;;;;;4.83;1.20;;;23.20;27.70;;;;;;5065659;28;20211;-75
2022/05/06 03:58:13;;;;;;;7.70;1.27;;;23.00;27.90;;;;;;5071298;28;20178;-79
2022/05/06 04:00:41;;;;;;;4.57;1.20;;;23.00;28.60;;;;;;5086268;28;20183;-76
2022/05/06 04:03:08;;;;;;;6.57;1.17;;;23.00;28.70;;;;;;5071970;28;20167;-80
2022/05/06 04:05:36;;;;;;;2.23;1.03;;;23.30;28.20;;;;;;5071407;28;20265;-83
2022/05/06 04:08:04;;;;;;;4.53;1.27;;;23.90;27.40;;;;;;5067986;28;20621;-77
2022/05/06 04:10:31;;;;;;;2.60;1.10;;;23.90;27.20;;;;;;5068777;28;20207;-76
2022/05/06 04:12:58;;;;;;;4.27;2.90;;;24.60;26.80;;;;;;5072417;28;20171;-76
2022/05/06 04:15:26;;;;;;;4.57;1.63;;;24.70;26.60;;;;;;5071597;28;20183;-77
2022/05/06 04:17:53;;;;;;;2.27;1.20;;;25.20;26.30;;;;;;5076372;28;20629;-77
2022/05/06 04:25:52;;;;;;;6.30;1.50;;;23.20;27.80;;;;;;5073176;28;20189;-74
2022/05/06 04:28:19;;;;;;;4.43;1.40;;;23.80;28.10;;;;;;5071811;28;20653;-75
2022/05/06 04:30:47;;;;;;;7.23;1.10;;;24.80;26.20;;;;;;5066254;28;20171;-77
2022/05/06 04:33:14;;;;;;;3.73;1.07;;;25.60;25.10;;;;;;5071036;28;20167;-76
2022/05/06 04:35:42;;;;;;;5.23;1.40;;;25.20;25.50;;;;;;5058910;28;20194;-75
2022/05/06 04:38:09;;;;;;;4.60;1.47;;;25.30;25.60;;;;;;5068074;28;20183;-77
2022/05/06 04:40:37;;;;;;;2.53;1.00;;;25.90;24.90;;;;;;5063968;28;20332;-77
2022/05/06 04:43:04;;;;;;;2.63;1.20;;;25.80;25.00;;;;;;5067591;28;20745;-75
2022/05/06 04:45:36;;;;;;;2.87;1.30;;;25.80;24.40;;;;;;5064890;28;20710;-74
2022/05/06 04:48:05;;;;;;;5.03;1.10;;;25.50;24.60;;;;;;5065995;28;20264;-76
2022/05/06 04:50:34;;;;;;;3.30;1.43;;;25.20;24.80;;;;;;5065348;28;20175;-75
2022/05/06 04:53:01;;;;;;;6.53;1.30;;;24.70;25.60;;;;;;5065889;28;20524;-75
2022/05/06 04:55:29;;;;;;;7.23;1.20;;;24.80;25.70;;;;;;5063823;28;20578;-74
2022/05/06 04:57:56;;;;;;;6.17;1.80;;;24.20;26.40;;;;;;5067379;28;20183;-76
2022/05/06 05:00:24;;;;;;;6.10;1.40;;;24.80;26.30;;;;;;5071669;28;20251;-79
2022/05/06 05:02:51;;;;;;;2.63;0.80;;;25.30;24.80;;;;;;5073349;28;20183;-77
2022/05/06 05:05:19;;;;;;;2.27;1.30;;;25.90;24.10;;;;;;5072648;28;20331;-77
2022/05/06 05:07:46;;;;;;;3.40;1.50;;;25.20;25.30;;;;;;5071142;28;20233;-79
2022/05/06 05:10:13;;;;;;;5.80;1.10;;;25.50;24.60;;;;;;5065396;28;20179;-78
2022/05/06 05:12:41;;;;;;;9.90;1.53;;;25.60;24.80;;;;;;5070361;28;20209;-78
2022/05/06 05:15:10;;;;;;;8.60;1.30;;;26.00;24.40;;;;;;5074925;28;20717;-75
2022/05/06 05:17:37;;;;;;;3.03;1.23;;;25.90;24.30;;;;;;5072630;28;20710;-76
2022/05/06 05:20:05;;;;;;;1.43;0.90;;;26.50;24.50;;;;;;5069575;28;20205;-77
2022/05/06 05:22:33;;;;;;;3.77;1.00;;;25.00;25.80;;;;;;5067027;28;20192;-79
2022/05/06 05:25:00;;;;;;;3.63;1.07;;;25.60;25.30;;;;;;5077718;28;20600;-79
2022/05/06 05:27:27;;;;;;;1.97;1.10;;;25.50;25.10;;;;;;5074212;28;20222;-80
2022/05/06 05:29:54;;;;;;;2.70;1.10;;;25.60;24.60;;;;;;5076165;28;20178;-78
2022/05/06 05:32:22;;;;;;;2.67;0.80;;;25.50;24.40;;;;;;5065467;28;21019;-78
2022/05/06 05:34:49;;;;;;;3.77;1.10;;;26.10;23.20;;;;;;5069440;28;20189;-77
2022/05/06 05:37:17;;;;;;;4.10;1.20;;;25.80;24.10;;;;;;5071089;28;20179;-76
2022/05/06 05:39:45;;;;;;;5.07;1.40;;;26.10;24.10;;;;;;5070702;28;20187;-76
2022/05/06 05:42:13;;;;;;;2.73;1.30;;;25.80;25.30;;;;;;5074983;28;20261;-76
2022/05/06 05:50:11;;;;;;;6.13;1.40;;;26.40;23.70;;;;;;5072759;28;20268;-78
2022/05/06 05:52:38;;;;;;;3.97;1.40;;;25.80;24.20;;;;;;5071440;28;20274;-80
2022/05/06 05:55:06;;;;;;;4.33;1.30;;;25.40;23.90;;;;;;5070836;28;20210;-77
2022/05/06 05:57:33;;;;;;;5.67;1.30;;;25.40;24.30;;;;;;5065568;28;20278;-76
2022/05/06 06:00:00;;;;;;;2.03;1.23;;;24.40;26.40;;;;;;5064030;28;20219;-77
2022/05/06 06:02:28;;;;;;;2.13;1.17;;;24.70;26.10;;;;;;5069060;28;20179;-77
2022/05/06 06:04:56;;;;;;;2.90;1.10;;;24.90;25.50;;;;;;5073766;28;20179;-77
2022/05/06 06:07:23;;;;;;;4.87;1.03;;;24.60;25.90;;;;;;5073088;28;20215;-75
2022/05/06 06:09:52;;;;;;;12.57;8.83;;;23.50;28.00;;;;;;5074547;28;20237;-75
2022/05/06 06:12:20;;;;;;;5.47;2.63;;;22.30;28.70;;;;;;5073988;28;20183;-76
2022/05/06 06:14:47;;;;;;;4.97;1.13;;;22.10;29.70;;;;;;5074663;28;20709;-75
2022/05/06 06:17:14;;;;;;;4.60;1.37;;;21.60;30.70;;;;;;5074021;28;20183;-75
2022/05/06 06:19:41;;;;;;;4.33;1.13;;;21.10;30.80;;;;;;5074313;28;20196;-77
2022/05/06 06:22:10;;;;;;;3.80;1.13;;;20.70;31.50;;;;;;5070354;28;20191;-77
2022/05/06 06:24:37;;;;;;;3.73;1.13;;;20.60;31.70;;;;;;5067344;28;20206;-76
2022/05/06 06:27:04;;;;;;;2.97;0.90;;;20.50;31.70;;;;;;5068388;28;20257;-76
2022/05/06 06:29:35;;;;;;;3.60;1.40;;;20.50;32.50;;;;;;5077126;28;20175;-77
2022/05/06 06:32:03;;;;;;;4.13;1.50;;;20.30;32.40;;;;;;5089337;28;20636;-76
2022/05/06 06:34:31;;;;;;;2.73;1.10;;;20.10;32.50;;;;;;5077063;28;20179;-77
2022/05/06 06:36:58;;;;;;;2.33;1.10;;;20.00;32.00;;;;;;5078487;28;20183;-75
2022/05/06 06:39:25;;;;;;;4.00;1.43;;;19.70;32.80;;;;;;5070863;28;20175;-76
2022/05/06 06:41:53;;;;;;;3.60;1.43;;;19.80;34.80;;;;;;5062246;28;20727;-75
2022/05/06 06:44:20;;;;;;;6.73;1.53;;;19.70;35.80;;;;;;5054681;28;20193;-75
2022/05/06 06:46:47;;;;;;;4.17;1.70;;;19.70;36.30;;;;;;5063888;28;20215;-77
2022/05/06 06:49:15;;;;;;;3.13;1.30;;;19.50;36.20;;;;;;5059973;28;20191;-74
2022/05/06 06:51:42;;;;;;;3.13;1.30;;;19.40;36.80;;;;;;5063923;28;20649;-75
2022/05/06 06:54:10;;;;;;;9.83;1.97;;;19.40;37.60;;;;;;5079624;28;20206;-75
2022/05/06 06:56:37;;;;;;;4.97;1.47;;;19.30;38.10;;;;;;5061986;28;20796;-75
2022/05/06 06:59:05;;;;;;;3.80;1.60;;;19.00;39.80;;;;;;5070312;28;20678;-75
2022/05/06 07:01:33;;;;;;;3.70;1.60;;;18.80;38.60;;;;;;5073296;28;20179;-73
2022/05/06 07:04:01;;;;;;;8.13;1.77;;;18.80;39.50;;;;;;5071482;28;20554;-75
2022/05/06 07:11:59;;;;;;;12.27;1.90;;;18.50;41.20;;;;;;5056029;28;20264;-75
2022/05/06 07:14:27;;;;;;;7.67;1.47;;;18.30;41.20;;;;;;5073973;28;20168;-74
2022/05/06 07:16:55;;;;;;;8.40;1.70;;;18.20;41.70;;;;;;5059321;28;20238;-76
2022/05/06 07:19:23;;;;;;;6.23;1.60;;;18.20;41.80;;;;;;5078839;28;20636;-75
2022/05/06 07:21:51;;;;;;;4.70;1.67;;;18.10;42.20;;;;;;5074949;28;20571;-75
2022/05/06 07:24:19;;;;;;;4.87;1.60;;;18.10;42.30;;;;;;5070337;28;20184;-75
2022/05/06 07:26:48;;;;;;;3.80;1.40;;;18.00;43.10;;;;;;5067911;28;20205;-75
2022/05/06 07:29:16;;;;;;;4.60;1.50;;;18.00;43.20;;;;;;5073132;28;20560;-75
2022/05/06 07:31:44;;;;;;;4.73;1.50;;;17.90;42.80;;;;;;5067680;28;20187;-75
2022/05/06 07:34:12;;;;;;;4.83;1.67;;;17.70;43.30;;;;;;5066634;28;20290;-75
2022/05/06 07:36:42;;;;;;;6.93;1.70;;;17.60;43.70;;;;;;5079214;28;20530;-75
2022/05/06 07:39:15;;;;;;;3.97;1.50;;;17.40;44.30;;;;;;5092198;28;20186;-75
2022/05/06 07:41:43;;;;;;;5.70;1.67;;;17.30;44.60;;;;;;5073169;28;20550;-74
2022/05/06 07:44:10;;;;;;;10.03;1.60;;;17.20;45.10;;;;;;5070033;28;20184;-74
2022/05/06 07:46:38;;;;;;;9.30;1.60;;;17.10;45.80;;;;;;5071162;28;20228;-74
2022/05/06 07:49:06;;;;;;;5.50;1.70;;;17.00;46.30;;;;;;5070820;28;20593;-74
2022/05/06 07:51:34;;;;;;;4.93;1.37;;;16.90;46.30;;;;;;5073100;28;20284;-73
2022/05/06 07:54:02;;;;;;;3.20;1.63;;;16.80;46.50;;;;;;5070991;28;20176;-74
2022/05/06 07:56:29;;;;;;;5.70;1.57;;;16.80;47.00;;;;;;5072756;28;20656;-74
2022/05/06 07:58:57;;;;;;;4.20;1.83;;;16.70;47.70;;;;;;5072873;28;20265;-74
2022/05/06 08:07:09;;;;;;;8.33;1.70;;;16.60;47.90;;;;;;5069906;28;20222;-74
2022/05/06 08:09:36;;;;;;;7.93;1.60;;;16.60;48.20;;;;;;5082040;28;20580;-74
2022/05/06 08:12:04;;;;;;;3.23;1.73;;;16.50;48.40;;;;;;5072264;28;20186;-75
2022/05/06 08:14:31;;;;;;;3.90;1.60;;;16.50;48.60;;;;;;5072931;28;20533;-75
2022/05/06 08:16:59;;;;;;;4.73;1.67;;;16.50;49.00;;;;;;5071616;28;20275;-75
2022/05/06 08:19:27;;;;;;;6.03;2.63;;;16.30;50.30;;;;;;5070521;28;20557;-75
2022/05/06 08:21:54;;;;;;;6.70;2.90;;;16.30;51.80;;;;;;5073400;28;20182;-74
2022/05/06 08:24:22;;;;;;;6.73;2.80;;;16.30;51.40;;;;;;5063420;28;20189;-75
2022/05/06 08:26:50;;;;;;;7.30;2.63;;;16.30;52.00;;;;;;5068640;28;20619;-75
2022/05/06 08:29:18;;;;;;;7.43;2.90;;;16.20;52.60;;;;;;5069111;28;20221;-74
2022/05/06 08:31:46;;;;;;;5.47;2.77;;;16.10;52.80;;;;;;5075075;28;20338;-74
2022/05/06 08:34:14;;;;;;;7.70;2.57;;;16.00;52.50;;;;;;5084203;28;20575;-74
2022/05/06 08:36:43;;;;;;;14.70;3.20;;;16.00;52.50;;;;;;5071563;28;20171;-73
2022/05/06 08:39:14;;;;;;;11.13;3.60;;;16.00;53.60;;;;;;5070962;28;20679;-74
2022/05/06 08:41:42;;;;;;;7.10;3.60;;;16.10;54.30;;;;;;5060584;28;20261;-74
2022/05/06 08:52:36;;;;;;;6.47;3.10;;;15.70;55.50;;;;;;5071041;28;20297;-76
2022/05/06 08:55:05;;;;;;;7.37;3.97;;;15.70;55.60;;;;;;5076741;28;20176;-75
2022/05/06 08:57:35;;;;;;;8.17;3.30;;;15.80;56.50;;;;;;5078327;28;20193;-75
2022/05/06 09:00:05;;;;;;;6.90;3.20;;;15.70;56.50;;;;;;5071422;28;20189;-75
2022/05/06 09:02:33;;;;;;;7.83;3.17;;;15.70;57.10;;;;;;5087594;28;20716;-75
2022/05/06 09:05:01;;;;;;;7.53;3.43;;;15.60;58.40;;;;;;5092474;28;20194;-75
2022/05/06 09:07:28;;;;;;;11.53;3.83;;;15.50;58.70;;;;;;5074375;28;20709;-75
2022/05/06 09:10:14;;;;;;;7.50;4.27;;;15.40;60.10;;;;;;5071540;28;20762;-75
2022/05/06 09:12:44;;;;;;;9.73;4.40;;;15.30;59.70;;;;;;5071927;28;20188;-75
2022/05/06 09:17:59;;;;;;;12.23;4.73;;;15.20;59.70;;;;;;5061194;28;20261;-74
2022/05/06 09:20:28;;;;;;;12.97;5.83;;;15.20;60.80;;;;;;5072177;28;20258;-75
2022/05/06 09:22:56;;;;;;;12.37;5.00;;;15.20;60.60;;;;;;5068673;28;20191;-75
2022/05/06 09:25:40;;;;;;;11.13;4.83;;;15.10;60.30;;;;;;5070188;28;20178;-75
2022/05/06 09:28:31;;;;;;;9.60;5.07;;;15.10;61.40;;;;;;5070724;28;20876;-75
2022/05/06 09:31:17;;;;;;;9.50;4.73;;;15.00;61.30;;;;;;5087795;28;20509;-75
2022/05/06 09:33:46;;;;;;;12.30;4.07;;;14.90;61.30;;;;;;5080487;28;20711;-75
2022/05/06 09:36:28;;;;;;;7.53;4.13;;;14.80;61.60;;;;;;5081034;28;20193;-75
2022/05/06 09:39:08;;;;;;;11.93;5.20;;;14.80;62.00;;;;;;5067653;28;20267;-75
2022/05/06 09:41:41;;;;;;;9.00;5.00;;;14.70;62.90;;;;;;5071826;28;20171;-75
2022/05/06 09:44:10;;;;;;;9.00;4.83;;;14.80;63.60;;;;;;5072808;28;20191;-75
2022/05/06 09:46:38;;;;;;;11.77;7.03;;;14.70;64.10;;;;;;5075370;28;20527;-75
2022/05/06 09:49:06;;;;;;;14.23;8.13;;;14.80;65.20;;;;;;5074529;28;20672;-75
2022/05/06 09:51:34;;;;;;;17.90;7.77;;;14.70;65.80;;;;;;5088012;28;20576;-75
2022/05/06 09:54:05;;;;;;;13.33;7.00;;;14.70;66.40;;;;;;5074633;28;20180;-75
2022/05/06 09:56:33;;;;;;;11.57;6.00;;;14.60;67.00;;;;;;5074797;28;20187;-75
2022/05/06 09:59:01;;;;;;;9.07;6.90;;;14.60;65.90;;;;;;5075450;28;20253;-75
2022/05/06 10:01:28;;;;;;;16.33;7.03;;;14.50;65.70;;;;;;5069841;28;20186;-75
2022/05/06 10:03:55;;;;;;;11.33;6.93;;;14.50;65.10;;;;;;5073527;28;20706;-75
2022/05/06 10:06:26;;;;;;;15.73;6.20;;;14.40;63.00;;;;;;5070539;28;20193;-75
2022/05/06 10:08:56;;;;;;;13.40;6.00;;;14.40;62.00;;;;;;5068630;28;20203;-75
2022/05/06 10:11:28;;;;;;;17.17;6.50;;;14.40;61.80;;;;;;5074509;28;20192;-75
2022/05/06 10:14:01;;;;;;;16.13;7.17;;;14.40;61.00;;;;;;5074795;28;20182;-75
2022/05/06 10:16:38;;;;;;;9.17;6.00;;;14.40;60.20;;;;;;5076364;28;20184;-75
2022/05/06 10:19:24;;;;;;;11.07;6.60;;;14.50;60.30;;;;;;5060792;28;20598;-74
2022/05/06 10:21:52;;;;;;;13.03;6.50;;;14.50;58.60;;;;;;5074010;28;20589;-74
2022/05/06 10:24:22;;;;;;;10.80;6.23;;;14.50;59.30;;;;;;5073828;28;20187;-75
2022/05/06 10:26:53;;;;;;;13.93;7.00;;;14.50;58.90;;;;;;5073641;28;20293;-75
2022/05/06 10:32:53;;;;;;;10.40;6.50;;;14.40;58.10;;;;;;5053841;28;20191;-75
2022/05/06 10:35:38;;;;;;;14.87;6.37;;;14.40;58.50;;;;;;5065867;28;20186;-75
2022/05/06 10:38:24;;;;;;;16.03;7.10;;;14.40;58.30;;;;;;5080346;28;20265;-75
2022/05/06 10:40:56;;;;;;;11.83;5.67;;;14.30;58.00;;;;;;5074323;28;20178;-74
2022/05/06 10:43:43;;;;;;;11.47;5.60;;;14.40;57.70;;;;;;5089824;28;20249;-75
2022/05/06 10:46:10;;;;;;;10.63;5.43;;;14.30;58.50;;;;;;5092419;28;20491;-75
2022/05/06 10:48:37;;;;;;;12.73;5.23;;;14.20;58.70;;;;;;5080900;28;20805;-75
2022/05/06 10:51:24;;;;;;;10.23;4.97;;;14.20;59.00;;;;;;5073251;28;20679;-76
2022/05/06 10:53:53;;;;;;;8.47;4.70;;;14.10;59.20;;;;;;5072782;28;20180;-75
2022/05/06 10:56:21;;;;;;;7.23;4.27;;;14.10;58.70;;;;;;5074743;28;20282;-75
2022/05/06 10:58:57;;;;;;;9.50;5.33;;;14.00;59.10;;;;;;5074802;28;20176;-74
2022/05/06 11:01:26;;;;;;;9.10;4.97;;;14.00;59.20;;;;;;5054912;28;20183;-74
2022/05/06 11:03:54;;;;;;;11.60;4.93;;;14.00;59.60;;;;;;5065848;28;20179;-74
2022/05/06 11:06:23;;;;;;;8.40;4.50;;;13.90;58.70;;;;;;5076903;28;20186;-75
2022/05/06 11:08:50;;;;;;;13.23;5.57;;;13.80;57.80;;;;;;5073867;28;20175;-74
2022/05/06 11:11:19;;;;;;;9.03;4.90;;;13.80;58.90;;;;;;5072025;28;20191;-74
2022/05/06 11:13:52;;;;;;;10.63;4.93;;;13.70;59.80;;;;;;5072901;28;20179;-74
2022/05/06 11:16:21;;;;;;;8.03;4.47;;;13.60;60.40;;;;;;5074179;28;20634;-74
2022/05/06 11:18:48;;;;;;;6.87;4.03;;;13.60;60.60;;;;;;5075688;28;20268;-74
2022/05/06 11:21:23;;;;;;;8.20;3.93;;;13.50;59.10;;;;;;5064454;28;20178;-74
2022/05/06 11:23:51;;;;;;;8.00;3.87;;;13.60;59.30;;;;;;5086853;28;20190;-75
2022/05/06 11:26:30;;;;;;;6.13;3.23;;;13.50;58.70;;;;;;5083327;28;20188;-74
2022/05/06 11:29:06;;;;;;;6.70;3.53;;;13.40;58.40;;;;;;5066765;28;20187;-74
2022/05/06 11:31:34;;;;;;;7.10;3.23;;;13.30;59.50;;;;;;5072002;28;20182;-74
2022/05/06 11:34:04;;;;;;;5.47;3.07;;;13.40;60.10;;;;;;5080651;28;20187;-74
2022/05/06 11:36:32;;;;;;;6.40;3.17;;;13.30;59.90;;;;;;5087369;28;20194;-74
2022/05/06 11:39:09;;;;;;;7.10;3.00;;;13.30;59.80;;;;;;5087900;28;20183;-75
2022/05/06 11:41:36;;;;;;;4.87;2.80;;;13.30;60.20;;;;;;5072862;28;20178;-74
2022/05/06 11:44:05;;;;;;;6.60;3.30;;;13.30;60.30;;;;;;5070330;28;20195;-74
2022/05/06 11:49:29;;;;;;;5.93;2.70;;;13.20;61.10;;;;;;5072729;28;20545;-74
2022/05/06 11:51:57;;;;;;;4.87;3.33;;;13.10;61.30;;;;;;5072471;28;20274;-74
2022/05/06 11:54:26;;;;;;;4.67;2.80;;;13.10;61.80;;;;;;5073028;28;20190;-74
2022/05/06 11:56:53;;;;;;;7.77;3.30;;;13.00;61.30;;;;;;5073243;28;20179;-74
2022/05/06 11:59:21;;;;;;;5.27;2.80;;;13.00;61.30;;;;;;5071265;28;20186;-74
2022/05/06 12:01:49;;;;;;;6.17;2.90;;;13.00;60.90;;;;;;5072086;28;20179;-75
2022/05/06 12:04:16;;;;;;;6.23;3.17;;;12.90;60.70;;;;;;5069033;28;20197;-74
2022/05/06 12:06:51;;;;;;;6.23;2.93;;;13.00;61.30;;;;;;5076684;28;20183;-74
2022/05/06 12:09:24;;;;;;;6.47;2.73;;;13.00;61.50;;;;;;5072426;28;20182;-74
2022/05/06 12:12:07;;;;;;;6.50;3.00;;;12.90;62.00;;;;;;5078398;28;20181;-74
2022/05/06 12:14:35;;;;;;;7.10;2.93;;;12.90;62.30;;;;;;5074839;28;20706;-75
2022/05/06 12:17:06;;;;;;;5.63;2.67;;;12.80;62.20;;;;;;5081179;28;20506;-75
2022/05/06 12:19:41;;;;;;;6.13;2.70;;;12.70;62.80;;;;;;5067481;28;20190;-75
2022/05/06 12:22:29;;;;;;;5.93;2.90;;;12.70;63.20;;;;;;5069720;28;20183;-75
2022/05/06 12:25:00;;;;;;;3.63;2.20;;;12.60;63.30;;;;;;5073868;28;20175;-75
2022/05/06 12:27:28;;;;;;;6.33;2.70;;;12.60;63.60;;;;;;5086660;28;20266;-74
2022/05/06 12:29:57;;;;;;;4.17;2.37;;;12.60;63.40;;;;;;5087264;28;20171;-74
2022/05/06 12:32:25;;;;;;;8.20;2.77;;;12.50;63.40;;;;;;5072502;28;20171;-75
2022/05/06 12:35:07;;;;;;;4.63;2.67;;;12.50;63.50;;;;;;5072402;28;20644;-75
2022/05/06 12:37:35;;;;;;;4.23;2.73;;;12.30;64.00;;;;;;5072674;28;20205;-75
2022/05/06 12:40:04;;;;;;;4.30;2.70;;;12.30;63.80;;;;;;5071258;28;20279;-74
2022/05/06 12:42:31;;;;;;;6.87;2.20;;;12.30;63.30;;;;;;5072444;28;20297;-74
2022/05/06 12:45:04;;;;;;;4.73;2.77;;;12.30;64.10;;;;;;5070507;28;20570;-74
2022/05/06 12:50:17;;;;;;;4.87;3.10;;;12.30;64.30;;;;;;5071775;28;20663;-74
2022/05/06 12:52:44;;;;;;;6.07;2.80;;;12.30;64.20;;;;;;5072424;28;20282;-75
2022/05/06 12:55:12;;;;;;;7.60;2.77;;;12.30;62.80;;;;;;5072465;28;20212;-75
2022/05/06 12:57:39;;;;;;;4.40;2.97;;;12.20;62.30;;;;;;5072413;28;20171;-75
2022/05/06 13:00:07;;;;;;;6.20;2.50;;;12.20;62.40;;;;;;5070163;28;20175;-74
2022/05/06 13:02:34;;;;;;;8.43;2.80;;;12.20;62.60;;;;;;5072447;28;20174;-74
2022/05/06 13:05:02;;;;;;;8.20;2.87;;;12.20;63.00;;;;;;5072427;28;20328;-75
2022/05/06 13:07:29;;;;;;;4.63;2.70;;;12.20;63.00;;;;;;5072200;28;20210;-74
2022/05/06 13:09:56;;;;;;;4.33;2.53;;;12.20;63.40;;;;;;5071441;28;20795;-75
2022/05/06 13:12:24;;;;;;;7.53;2.80;;;12.20;63.40;;;;;;5072501;28;20558;-75
2022/05/06 13:14:51;;;;;;;3.47;2.20;;;12.10;63.80;;;;;;5072472;28;20178;-75
2022/05/06 13:17:18;;;;;;;4.67;2.50;;;12.10;64.30;;;;;;5071481;28;20615;-75
2022/05/06 13:19:46;;;;;;;6.40;2.70;;;12.00;64.10;;;;;;5072164;28;20205;-75
2022/05/06 13:22:14;;;;;;;6.17;2.50;;;12.00;64.30;;;;;;5076170;28;20190;-75
2022/05/06 13:24:41;;;;;;;7.07;2.83;;;11.90;64.30;;;;;;5075002;28;20171;-75
2022/05/06 13:27:08;;;;;;;6.90;2.70;;;11.90;64.30;;;;;;5073051;28;20250;-74
2022/05/06 13:29:36;;;;;;;4.47;2.30;;;11.90;63.90;;;;;;5071392;28;20256;-74
2022/05/06 13:32:03;;;;;;;4.23;2.40;;;11.90;63.10;;;;;;5075127;28;20168;-74
2022/05/06 13:34:30;;;;;;;5.80;2.63;;;11.90;63.10;;;;;;5074461;28;20174;-74
2022/05/06 13:36:58;;;;;;;3.90;2.67;;;11.80;63.50;;;;;;5074560;28;20194;-74
2022/05/06 13:39:25;;;;;;;7.47;2.60;;;11.80;63.10;;;;;;5074563;28;20175;-75
2022/05/06 13:41:52;;;;;;;3.97;2.30;;;11.80;63.60;;;;;;5075989;28;20640;-75
2022/05/06 13:44:20;;;;;;;7.10;2.30;;;11.90;63.60;;;;;;5075223;28;20538;-75
2022/05/06 13:46:48;;;;;;;4.23;2.40;;;11.80;63.30;;;;;;5075546;28;20182;-75
2022/05/06 13:49:15;;;;;;;6.10;2.57;;;11.80;63.60;;;;;;5074640;28;20249;-75